Time;durP1;ratioP1;P1;durP2;ratioP2;P2;SDS_P1;SDS_P2;PMS_P1;PMS_P2;Temp;Humidity;BMP_temperature;BMP_pressure;BME280_temperature;BME280_humidity;BME280_pressure;Samples;Min_cycle;Max_cycle;Signal;HPM_P1;HPM_P2
2022/01/05 00:01:54;;;;;;;12.48;5.28;;;;;;;;;;5077936;28;20029;-38
2022/01/05 00:04:20;;;;;;;12.73;5.28;;;;;;;;;;5077527;28;20044;-38
2022/01/05 00:06:45;;;;;;;7.45;4.85;;;;;;;;;;5077924;28;20031;-38
2022/01/05 00:09:11;;;;;;;12.25;5.72;;;;;;;;;;5077722;28;20074;-38
2022/01/05 00:11:36;;;;;;;9.68;5.35;;;;;;;;;;5077478;28;20070;-38
2022/01/05 00:14:01;;;;;;;12.02;5.35;;;;;;;;;;5077927;28;20032;-38
2022/01/05 00:16:27;;;;;;;7.43;4.15;;;;;;;;;;5077677;28;20023;-38
2022/01/05 00:18:53;;;;;;;13.52;5.15;;;;;;;;;;5077450;28;20037;-38
2022/01/05 00:21:18;;;;;;;13.07;6.38;;;;;;;;;;5077498;28;20056;-38
2022/01/05 00:23:44;;;;;;;11.00;6.22;;;;;;;;;;5077611;28;20087;-38
2022/01/05 00:26:09;;;;;;;11.45;5.90;;;;;;;;;;5077733;28;20039;-38
2022/01/05 00:28:35;;;;;;;11.07;5.25;;;;;;;;;;5077446;28;20103;-38
2022/01/05 00:31:00;;;;;;;10.45;4.32;;;;;;;;;;5077496;28;20524;-38
2022/01/05 00:33:25;;;;;;;15.07;5.72;;;;;;;;;;5077524;28;20032;-38
2022/01/05 00:35:51;;;;;;;17.50;7.07;;;;;;;;;;5076028;28;20024;-38
2022/01/05 00:38:16;;;;;;;9.02;5.15;;;;;;;;;;5077749;28;20065;-38
2022/01/05 00:40:42;;;;;;;14.68;6.05;;;;;;;;;;5077126;28;20048;-38
2022/01/05 00:43:07;;;;;;;13.40;4.85;;;;;;;;;;5077419;28;20032;-37
2022/01/05 00:45:32;;;;;;;9.65;5.40;;;;;;;;;;5077684;28;20044;-37
2022/01/05 00:47:58;;;;;;;3.95;2.85;;;;;;;;;;5077166;28;20037;-37
2022/01/05 00:50:23;;;;;;;15.23;6.38;;;;;;;;;;5077566;28;20040;-38
2022/01/05 00:52:49;;;;;;;17.67;8.23;;;;;;;;;;5077207;28;20028;-40
2022/01/05 00:55:14;;;;;;;11.50;5.40;;;;;;;;;;5077185;28;20031;-38
2022/01/05 00:57:39;;;;;;;16.30;6.45;;;;;;;;;;5075011;28;20024;-38
2022/01/05 01:00:05;;;;;;;17.40;6.93;;;;;;;;;;5074044;28;20111;-38
2022/01/05 01:02:31;;;;;;;12.77;6.05;;;;;;;;;;5073899;28;20036;-38
2022/01/05 01:04:56;;;;;;;12.95;5.63;;;;;;;;;;5073875;28;20036;-38
2022/01/05 01:07:22;;;;;;;11.65;6.40;;;;;;;;;;5073840;28;20033;-38
2022/01/05 01:09:47;;;;;;;17.13;7.53;;;;;;;;;;5074064;28;20032;-37
2022/01/05 01:12:13;;;;;;;14.13;7.65;;;;;;;;;;5073790;28;20387;-37
2022/01/05 01:14:38;;;;;;;14.20;6.25;;;;;;;;;;5073760;28;20024;-38
2022/01/05 01:17:04;;;;;;;10.88;6.40;;;;;;;;;;5073891;28;20029;-38
2022/01/05 01:19:29;;;;;;;15.63;7.78;;;;;;;;;;5073733;28;20028;-37
2022/01/05 01:21:55;;;;;;;17.70;7.53;;;;;;;;;;5073800;28;20071;-37
2022/01/05 01:24:21;;;;;;;9.65;6.07;;;;;;;;;;5073521;28;20036;-38
2022/01/05 01:26:46;;;;;;;11.57;6.32;;;;;;;;;;5073726;28;20111;-39
2022/01/05 01:29:11;;;;;;;15.55;7.70;;;;;;;;;;5073567;28;20089;-38
2022/01/05 01:31:37;;;;;;;13.52;5.72;;;;;;;;;;5073341;28;20070;-39
2022/01/05 01:34:02;;;;;;;22.15;8.38;;;;;;;;;;5073727;28;20111;-42
2022/01/05 01:36:28;;;;;;;13.48;7.03;;;;;;;;;;5073767;28;20052;-38
2022/01/05 01:38:53;;;;;;;15.25;8.10;;;;;;;;;;5073044;28;20466;-38
2022/01/05 01:41:19;;;;;;;19.38;8.15;;;;;;;;;;5073598;28;20039;-38
2022/01/05 01:43:44;;;;;;;22.23;6.55;;;;;;;;;;5073105;28;20390;-38
2022/01/05 01:46:10;;;;;;;15.15;6.07;;;;;;;;;;5073476;28;20037;-37
2022/01/05 01:48:35;;;;;;;16.20;7.63;;;;;;;;;;5073105;28;20455;-38
2022/01/05 01:51:01;;;;;;;18.67;7.60;;;;;;;;;;5073105;28;20216;-38
2022/01/05 01:53:26;;;;;;;12.43;6.78;;;;;;;;;;5071712;28;20028;-38
2022/01/05 01:55:52;;;;;;;16.00;6.47;;;;;;;;;;5072956;28;20494;-38
2022/01/05 01:58:18;;;;;;;12.63;7.65;;;;;;;;;;5073125;28;20052;-38
2022/01/05 02:00:44;;;;;;;17.67;7.63;;;;;;;;;;5072787;28;20041;-38
2022/01/05 02:03:11;;;;;;;17.08;7.60;;;;;;;;;;5072862;28;20077;-38
2022/01/05 02:05:36;;;;;;;12.05;5.70;;;;;;;;;;5072597;28;20132;-38
2022/01/05 02:08:02;;;;;;;16.77;6.88;;;;;;;;;;5072993;28;20104;-38
2022/01/05 02:10:28;;;;;;;10.25;5.65;;;;;;;;;;5071793;28;20079;-37
2022/01/05 02:12:53;;;;;;;18.35;6.88;;;;;;;;;;5072598;28;20024;-38
2022/01/05 02:15:20;;;;;;;20.58;7.25;;;;;;;;;;5088532;28;20025;-38
2022/01/05 02:17:52;;;;;;;11.70;6.70;;;;;;;;;;5072485;28;20754;-38
2022/01/05 02:20:20;;;;;;;12.13;5.70;;;;;;;;;;5072478;28;20032;-39
2022/01/05 02:22:45;;;;;;;12.10;6.10;;;;;;;;;;5072708;28;20124;-38
2022/01/05 02:25:11;;;;;;;8.07;5.95;;;;;;;;;;5072670;28;20147;-38
2022/01/05 02:27:40;;;;;;;14.65;7.18;;;;;;;;;;5072557;28;20664;-37
2022/01/05 02:30:07;;;;;;;14.73;6.95;;;;;;;;;;5072329;28;20037;-37
2022/01/05 02:32:32;;;;;;;17.10;8.60;;;;;;;;;;5072506;28;20025;-38
2022/01/05 02:34:58;;;;;;;14.30;6.18;;;;;;;;;;5072119;28;20043;-38
2022/01/05 02:37:23;;;;;;;15.75;7.97;;;;;;;;;;5072207;28;20020;-38
2022/01/05 02:39:48;;;;;;;13.80;6.95;;;;;;;;;;5070625;28;20114;-38
2022/01/05 02:42:24;;;;;;;12.98;6.78;;;;;;;;;;5087979;28;20451;-38
2022/01/05 02:44:49;;;;;;;15.60;5.35;;;;;;;;;;5072209;28;20037;-39
2022/01/05 02:47:15;;;;;;;14.02;5.75;;;;;;;;;;5072280;28;20020;-38
2022/01/05 02:49:40;;;;;;;15.32;7.38;;;;;;;;;;5071836;28;20032;-38
2022/01/05 02:52:05;;;;;;;15.20;6.60;;;;;;;;;;5071810;28;20031;-38
2022/01/05 02:54:31;;;;;;;13.32;6.07;;;;;;;;;;5071863;28;20036;-37
2022/01/05 02:56:56;;;;;;;12.95;6.72;;;;;;;;;;5071672;28;20028;-41
2022/01/05 02:59:21;;;;;;;14.57;5.68;;;;;;;;;;5071773;28;20036;-39
2022/01/05 03:01:47;;;;;;;18.65;6.68;;;;;;;;;;5071631;28;20024;-38
2022/01/05 03:04:12;;;;;;;11.10;5.85;;;;;;;;;;5071541;28;20048;-38
2022/01/05 03:06:38;;;;;;;8.68;5.75;;;;;;;;;;5071907;28;20032;-38
2022/01/05 03:09:03;;;;;;;12.30;5.38;;;;;;;;;;5071699;28;20577;-38
2022/01/05 03:11:28;;;;;;;15.23;5.88;;;;;;;;;;5071793;28;20028;-38
2022/01/05 03:13:54;;;;;;;11.43;5.95;;;;;;;;;;5071561;28;20025;-38
2022/01/05 03:16:19;;;;;;;12.95;6.93;;;;;;;;;;5071873;28;20117;-38
2022/01/05 03:18:45;;;;;;;9.88;5.68;;;;;;;;;;5071419;28;20475;-38
2022/01/05 03:21:10;;;;;;;12.15;5.93;;;;;;;;;;5086695;28;20059;-38
2022/01/05 03:23:35;;;;;;;11.55;5.28;;;;;;;;;;5071628;28;20059;-38
2022/01/05 03:26:01;;;;;;;14.30;6.22;;;;;;;;;;5071457;28;20024;-37
2022/01/05 03:28:26;;;;;;;9.77;5.38;;;;;;;;;;5071413;28;20024;-38
2022/01/05 03:30:52;;;;;;;12.45;6.18;;;;;;;;;;5071208;28;20020;-38
2022/01/05 03:33:21;;;;;;;12.65;6.47;;;;;;;;;;5071688;28;20028;-38
2022/01/05 03:35:46;;;;;;;9.93;5.35;;;;;;;;;;5071240;28;20096;-38
2022/01/05 03:38:13;;;;;;;10.25;6.50;;;;;;;;;;5071220;28;20832;-37
2022/01/05 03:40:38;;;;;;;12.93;6.20;;;;;;;;;;5071088;28;20098;-38
2022/01/05 03:43:05;;;;;;;11.60;6.57;;;;;;;;;;5071208;28;20028;-39
2022/01/05 03:45:31;;;;;;;11.48;7.30;;;;;;;;;;5071213;28;20518;-38
2022/01/05 03:47:56;;;;;;;14.15;5.65;;;;;;;;;;5071198;28;20068;-38
2022/01/05 03:50:22;;;;;;;14.77;5.72;;;;;;;;;;5071409;28;20116;-38
2022/01/05 03:52:47;;;;;;;16.23;6.13;;;;;;;;;;5071081;28;20437;-38
2022/01/05 03:55:12;;;;;;;11.02;5.20;;;;;;;;;;5071398;28;20097;-38
2022/01/05 03:57:38;;;;;;;13.10;5.38;;;;;;;;;;5071143;28;20028;-38
2022/01/05 04:00:04;;;;;;;9.57;5.63;;;;;;;;;;5071022;28;20025;-38
2022/01/05 04:02:38;;;;;;;14.82;6.72;;;;;;;;;;5071028;28;20025;-38
2022/01/05 04:05:04;;;;;;;14.38;5.63;;;;;;;;;;5071209;28;20032;-38
2022/01/05 04:07:30;;;;;;;13.75;6.75;;;;;;;;;;5071221;28;20383;-38
2022/01/05 04:09:55;;;;;;;13.88;6.30;;;;;;;;;;5071240;28;20474;-38
2022/01/05 04:12:20;;;;;;;15.23;6.38;;;;;;;;;;5070941;28;20109;-38
2022/01/05 04:14:46;;;;;;;7.90;4.55;;;;;;;;;;5070812;28;20039;-38
2022/01/05 04:17:11;;;;;;;11.90;6.88;;;;;;;;;;5071332;28;20028;-38
2022/01/05 04:19:36;;;;;;;10.90;5.65;;;;;;;;;;5070808;28;20427;-38
2022/01/05 04:22:02;;;;;;;8.75;5.93;;;;;;;;;;5070811;28;20040;-39
2022/01/05 04:24:27;;;;;;;16.38;6.32;;;;;;;;;;5071080;28;20040;-38
2022/01/05 04:26:53;;;;;;;12.13;5.72;;;;;;;;;;5070799;28;20623;-38
2022/01/05 04:29:18;;;;;;;13.32;5.78;;;;;;;;;;5070804;28;20078;-38
2022/01/05 04:31:45;;;;;;;10.32;5.70;;;;;;;;;;5070964;28;20032;-38
2022/01/05 04:34:11;;;;;;;9.15;4.75;;;;;;;;;;5074215;28;20090;-38
2022/01/05 04:36:36;;;;;;;11.57;4.97;;;;;;;;;;5074728;28;20455;-38
2022/01/05 04:39:02;;;;;;;11.82;6.35;;;;;;;;;;5074362;28;20398;-38
2022/01/05 04:41:28;;;;;;;12.13;5.65;;;;;;;;;;5074498;28;20028;-38
2022/01/05 04:43:53;;;;;;;9.68;5.45;;;;;;;;;;5072820;28;20533;-38
2022/01/05 04:46:18;;;;;;;10.88;6.32;;;;;;;;;;5074658;28;20029;-38
2022/01/05 04:48:44;;;;;;;15.95;6.80;;;;;;;;;;5074529;28;20039;-38
2022/01/05 04:51:09;;;;;;;17.20;6.88;;;;;;;;;;5074113;28;20083;-38
2022/01/05 04:53:35;;;;;;;9.98;5.65;;;;;;;;;;5074297;28;20028;-38
2022/01/05 04:56:00;;;;;;;8.38;4.13;;;;;;;;;;5074442;28;20021;-38
2022/01/05 04:58:26;;;;;;;15.30;6.90;;;;;;;;;;5074353;28;20139;-38
2022/01/05 05:00:52;;;;;;;12.27;6.07;;;;;;;;;;5073962;28;20055;-38
2022/01/05 05:03:17;;;;;;;13.52;6.47;;;;;;;;;;5073933;28;20115;-38
2022/01/05 05:05:42;;;;;;;9.30;5.22;;;;;;;;;;5073804;28;20133;-38
2022/01/05 05:08:08;;;;;;;8.60;6.03;;;;;;;;;;5074223;28;20048;-38
2022/01/05 05:10:33;;;;;;;12.38;6.00;;;;;;;;;;5073887;28;20074;-38
2022/01/05 05:12:59;;;;;;;9.82;4.93;;;;;;;;;;5073841;28;20032;-38
2022/01/05 05:15:24;;;;;;;11.80;4.07;;;;;;;;;;5073798;28;20032;-38
2022/01/05 05:17:50;;;;;;;11.80;4.88;;;;;;;;;;5089271;28;20025;-38
2022/01/05 05:20:15;;;;;;;9.90;4.97;;;;;;;;;;5073963;28;20028;-38
2022/01/05 05:22:41;;;;;;;15.63;5.53;;;;;;;;;;5073864;28;20024;-38
2022/01/05 05:25:07;;;;;;;11.55;5.07;;;;;;;;;;5073528;28;20037;-38
2022/01/05 05:27:32;;;;;;;11.70;5.57;;;;;;;;;;5073662;28;20027;-38
2022/01/05 05:29:58;;;;;;;11.23;4.15;;;;;;;;;;5073734;28;20032;-42
2022/01/05 05:32:24;;;;;;;10.27;5.72;;;;;;;;;;5073413;28;20040;-38
2022/01/05 05:34:50;;;;;;;9.75;5.20;;;;;;;;;;5073371;28;20090;-38
2022/01/05 05:37:16;;;;;;;7.57;4.63;;;;;;;;;;5073367;28;20036;-38
2022/01/05 05:39:42;;;;;;;11.07;5.78;;;;;;;;;;5073180;28;20083;-38
2022/01/05 05:42:07;;;;;;;11.00;6.22;;;;;;;;;;5073246;28;20518;-38
2022/01/05 05:44:33;;;;;;;9.80;3.97;;;;;;;;;;5072903;28;20044;-38
2022/01/05 05:46:59;;;;;;;9.27;5.53;;;;;;;;;;5073135;28;20060;-38
2022/01/05 05:49:24;;;;;;;9.80;4.75;;;;;;;;;;5073476;28;20016;-38
2022/01/05 05:51:49;;;;;;;8.43;4.38;;;;;;;;;;5073311;28;20430;-38
2022/01/05 05:54:15;;;;;;;14.75;6.70;;;;;;;;;;5073572;28;20550;-38
2022/01/05 05:56:41;;;;;;;9.48;3.70;;;;;;;;;;5071717;28;20080;-38
2022/01/05 05:59:06;;;;;;;8.75;5.20;;;;;;;;;;5072951;28;20395;-38
2022/01/05 06:01:32;;;;;;;13.82;5.47;;;;;;;;;;5073093;28;20035;-38
2022/01/05 06:03:57;;;;;;;12.48;4.45;;;;;;;;;;5073023;28;20363;-38
2022/01/05 06:06:22;;;;;;;11.07;5.18;;;;;;;;;;5072792;28;20437;-38
2022/01/05 06:08:48;;;;;;;6.05;4.13;;;;;;;;;;5072682;28;20021;-38
2022/01/05 06:11:13;;;;;;;9.32;4.93;;;;;;;;;;5072685;28;20025;-38
2022/01/05 06:13:38;;;;;;;3.33;2.88;;;;;;;;;;5072782;28;20362;-38
2022/01/05 06:16:04;;;;;;;12.40;5.68;;;;;;;;;;5072652;28;20037;-39
2022/01/05 06:18:29;;;;;;;6.13;3.40;;;;;;;;;;5072654;28;20017;-38
2022/01/05 06:20:55;;;;;;;5.43;3.67;;;;;;;;;;5072472;28;20055;-38
2022/01/05 06:23:20;;;;;;;6.85;3.33;;;;;;;;;;5072749;28;20016;-38
2022/01/05 06:25:45;;;;;;;12.80;4.53;;;;;;;;;;5072273;28;20040;-38
2022/01/05 06:28:11;;;;;;;4.55;3.50;;;;;;;;;;5072700;28;20022;-38
2022/01/05 06:30:40;;;;;;;8.52;4.15;;;;;;;;;;5072185;28;20564;-38
2022/01/05 06:33:06;;;;;;;11.75;4.93;;;;;;;;;;5072573;28;20032;-38
2022/01/05 06:35:31;;;;;;;10.85;4.80;;;;;;;;;;5072262;28;20536;-37
2022/01/05 06:37:57;;;;;;;8.13;3.92;;;;;;;;;;5072292;28;20028;-37
2022/01/05 06:40:22;;;;;;;6.03;3.72;;;;;;;;;;5072158;28;20045;-38
2022/01/05 06:42:48;;;;;;;11.32;5.35;;;;;;;;;;5070781;28;20036;-37
2022/01/05 06:45:13;;;;;;;8.60;4.50;;;;;;;;;;5072194;28;20067;-37
2022/01/05 06:47:39;;;;;;;7.72;4.32;;;;;;;;;;5072066;28;20024;-38
2022/01/05 06:50:04;;;;;;;9.52;3.78;;;;;;;;;;5072039;28;20043;-38
2022/01/05 06:52:30;;;;;;;2.45;2.15;;;;;;;;;;5072241;28;20044;-37
2022/01/05 06:54:56;;;;;;;8.40;2.83;;;;;;;;;;5071386;28;20543;-38
2022/01/05 06:57:21;;;;;;;2.28;2.03;;;;;;;;;;5071882;28;20043;-38
2022/01/05 06:59:47;;;;;;;2.25;1.70;;;;;;;;;;5072052;28;20043;-38
2022/01/05 07:02:13;;;;;;;4.72;3.05;;;;;;;;;;5071707;28;20478;-38
2022/01/05 07:04:38;;;;;;;6.35;4.38;;;;;;;;;;5071658;28;20037;-38
2022/01/05 07:07:04;;;;;;;8.57;3.03;;;;;;;;;;5071553;28;20020;-38
2022/01/05 07:09:29;;;;;;;10.77;3.88;;;;;;;;;;5071640;28;20103;-38
2022/01/05 07:11:55;;;;;;;0.75;0.75;;;;;;;;;;5071485;28;20023;-38
2022/01/05 07:14:23;;;;;;;5.63;2.25;;;;;;;;;;5087149;28;20536;-38
2022/01/05 07:16:51;;;;;;;0.30;0.30;;;;;;;;;;5071502;28;20099;-38
2022/01/05 07:19:17;;;;;;;5.28;2.90;;;;;;;;;;5071574;28;20064;-38
2022/01/05 07:21:42;;;;;;;5.45;2.25;;;;;;;;;;5071245;28;20501;-38
2022/01/05 07:24:12;;;;;;;0.65;0.52;;;;;;;;;;5071688;28;20047;-39
2022/01/05 07:26:38;;;;;;;4.40;3.03;;;;;;;;;;5071695;28;20496;-38
2022/01/05 07:29:03;;;;;;;0.82;0.82;;;;;;;;;;5071537;28;20036;-38
2022/01/05 07:31:29;;;;;;;3.92;3.17;;;;;;;;;;5071681;28;20024;-38
2022/01/05 07:33:54;;;;;;;8.05;2.38;;;;;;;;;;5071162;28;20436;-37
2022/01/05 07:36:19;;;;;;;11.82;3.42;;;;;;;;;;5071410;28;20017;-38
2022/01/05 07:38:45;;;;;;;2.00;1.33;;;;;;;;;;5071290;28;20116;-39
2022/01/05 07:41:10;;;;;;;4.78;2.90;;;;;;;;;;5071249;28;20479;-38
2022/01/05 07:43:36;;;;;;;3.53;1.13;;;;;;;;;;5071281;28;20055;-42
2022/01/05 07:46:01;;;;;;;7.30;2.05;;;;;;;;;;5071162;28;20032;-38
2022/01/05 07:48:27;;;;;;;5.65;3.25;;;;;;;;;;5071200;28;20108;-38
2022/01/05 07:50:52;;;;;;;4.95;2.15;;;;;;;;;;5071161;28;20027;-38
2022/01/05 07:53:18;;;;;;;4.35;2.40;;;;;;;;;;5071177;28;20460;-38
2022/01/05 07:55:44;;;;;;;3.55;1.83;;;;;;;;;;5071097;28;20031;-38
2022/01/05 07:58:09;;;;;;;5.78;2.30;;;;;;;;;;5071125;28;20040;-38
2022/01/05 08:00:35;;;;;;;4.10;1.88;;;;;;;;;;5071379;28;20031;-38
2022/01/05 08:03:01;;;;;;;3.83;1.45;;;;;;;;;;5071296;28;20048;-38
2022/01/05 08:05:26;;;;;;;5.03;1.80;;;;;;;;;;5070926;28;20563;-38
2022/01/05 08:07:52;;;;;;;6.50;2.63;;;;;;;;;;5074148;28;20031;-38
2022/01/05 08:10:17;;;;;;;2.20;2.00;;;;;;;;;;5074942;28;20025;-38
2022/01/05 08:12:43;;;;;;;12.88;3.97;;;;;;;;;;5075006;28;20033;-38
2022/01/05 08:15:09;;;;;;;1.98;1.35;;;;;;;;;;5075400;28;20032;-38
2022/01/05 08:17:35;;;;;;;1.38;1.27;;;;;;;;;;5074811;28;20036;-38
2022/01/05 08:20:01;;;;;;;7.00;2.85;;;;;;;;;;5074857;28;20025;-38
2022/01/05 08:22:27;;;;;;;7.40;3.03;;;;;;;;;;5074822;28;20499;-38
2022/01/05 08:24:52;;;;;;;0.38;0.38;;;;;;;;;;5074824;28;20097;-37
2022/01/05 08:27:18;;;;;;;0.17;0.17;;;;;;;;;;5074804;28;20104;-38
2022/01/05 08:29:43;;;;;;;5.18;2.35;;;;;;;;;;5074371;28;20021;-38
2022/01/05 08:32:09;;;;;;;4.97;2.65;;;;;;;;;;5074660;28;20056;-38
2022/01/05 08:34:34;;;;;;;0.43;0.43;;;;;;;;;;5074589;28;20025;-38
2022/01/05 08:36:59;;;;;;;9.13;3.30;;;;;;;;;;5073153;28;20029;-38
2022/01/05 08:39:25;;;;;;;1.77;1.00;;;;;;;;;;5074589;28;20491;-38
2022/01/05 08:41:51;;;;;;;7.45;2.67;;;;;;;;;;5074620;28;20032;-41
2022/01/05 08:44:16;;;;;;;4.53;2.60;;;;;;;;;;5074306;28;20036;-38
2022/01/05 08:46:42;;;;;;;2.00;1.75;;;;;;;;;;5074524;28;20078;-38
2022/01/05 08:49:10;;;;;;;12.68;2.25;;;;;;;;;;5073997;28;20033;-38
2022/01/05 08:51:38;;;;;;;0.65;0.63;;;;;;;;;;5074215;28;20082;-38
2022/01/05 08:54:05;;;;;;;4.28;1.92;;;;;;;;;;5074113;28;20021;-38
2022/01/05 08:56:31;;;;;;;7.97;2.63;;;;;;;;;;5074297;28;20051;-38
2022/01/05 08:58:56;;;;;;;8.77;2.30;;;;;;;;;;5074345;28;20408;-38
2022/01/05 09:01:22;;;;;;;5.50;2.60;;;;;;;;;;5074005;28;20498;-39
2022/01/05 09:03:48;;;;;;;1.10;0.40;;;;;;;;;;5073018;28;20017;-38
2022/01/05 09:06:13;;;;;;;2.55;1.73;;;;;;;;;;5074147;28;20449;-38
2022/01/05 09:08:39;;;;;;;13.73;2.67;;;;;;;;;;5073976;28;20059;-38
2022/01/05 09:11:07;;;;;;;10.25;2.67;;;;;;;;;;5074160;28;20082;-38
2022/01/05 09:13:32;;;;;;;2.42;1.92;;;;;;;;;;5073868;28;20024;-38
2022/01/05 09:15:58;;;;;;;5.47;1.92;;;;;;;;;;5074060;28;20525;-42
2022/01/05 09:18:24;;;;;;;5.70;2.35;;;;;;;;;;5073371;28;20047;-38
2022/01/05 09:20:49;;;;;;;6.65;2.78;;;;;;;;;;5073634;28;20060;-38
2022/01/05 09:23:14;;;;;;;4.57;2.35;;;;;;;;;;5073792;28;20428;-38
2022/01/05 09:25:40;;;;;;;4.25;2.53;;;;;;;;;;5073773;28;20033;-38
2022/01/05 09:28:05;;;;;;;5.93;2.67;;;;;;;;;;5073549;28;20017;-38
2022/01/05 09:30:31;;;;;;;5.10;2.60;;;;;;;;;;5073590;28;20036;-38
2022/01/05 09:32:58;;;;;;;3.53;1.83;;;;;;;;;;5073518;28;20074;-38
2022/01/05 09:35:25;;;;;;;5.60;2.95;;;;;;;;;;5073476;28;20020;-38
2022/01/05 09:43:23;;;;;;;2.65;1.63;;;;;;;;;;5073420;28;20052;-38
2022/01/05 09:45:53;;;;;;;4.72;1.98;;;;;;;;;;5073113;28;20075;-38
2022/01/05 09:48:24;;;;;;;5.90;2.88;;;;;;;;;;5073215;28;20024;-38
2022/01/05 09:51:01;;;;;;;4.40;2.10;;;;;;;;;;5073352;28;20033;-38
2022/01/05 09:53:29;;;;;;;8.10;2.58;;;;;;;;;;5073123;28;20460;-39
2022/01/05 09:55:55;;;;;;;4.15;1.83;;;;;;;;;;5073010;28;20462;-38
2022/01/05 09:58:21;;;;;;;11.63;2.47;;;;;;;;;;5073140;28;20047;-38
2022/01/05 10:00:48;;;;;;;0.60;0.60;;;;;;;;;;5073208;28;20013;-38
2022/01/05 10:03:14;;;;;;;7.35;2.63;;;;;;;;;;5072914;28;20036;-38
2022/01/05 10:05:41;;;;;;;4.93;2.70;;;;;;;;;;5073146;28;20480;-38
2022/01/05 10:08:06;;;;;;;5.38;2.35;;;;;;;;;;5071581;28;20481;-38
2022/01/05 10:10:31;;;;;;;5.13;1.52;;;;;;;;;;5072698;28;20024;-38
2022/01/05 10:12:57;;;;;;;5.70;2.88;;;;;;;;;;5072959;28;20033;-38
2022/01/05 10:15:22;;;;;;;2.33;2.05;;;;;;;;;;5072702;28;20028;-38
2022/01/05 10:17:48;;;;;;;4.95;2.50;;;;;;;;;;5072557;28;20020;-38
2022/01/05 10:20:13;;;;;;;3.97;2.28;;;;;;;;;;5088279;28;20036;-38
2022/01/05 10:22:43;;;;;;;7.78;2.47;;;;;;;;;;5088218;28;20170;-38
2022/01/05 10:25:14;;;;;;;3.40;2.72;;;;;;;;;;5072444;28;20042;-38
2022/01/05 10:27:39;;;;;;;7.25;2.78;;;;;;;;;;5072395;28;20071;-38
2022/01/05 10:30:06;;;;;;;13.30;2.63;;;;;;;;;;5071451;28;20028;-38
2022/01/05 10:32:33;;;;;;;6.35;2.72;;;;;;;;;;5088166;28;20033;-38
2022/01/05 10:35:12;;;;;;;6.93;2.38;;;;;;;;;;5072331;28;20016;-38
2022/01/05 10:37:39;;;;;;;7.68;2.80;;;;;;;;;;5072201;28;20032;-39
2022/01/05 10:40:05;;;;;;;2.97;1.90;;;;;;;;;;5071927;28;20055;-38
2022/01/05 10:42:32;;;;;;;4.63;2.08;;;;;;;;;;5072509;28;20028;-38
2022/01/05 10:44:57;;;;;;;6.07;2.45;;;;;;;;;;5071906;28;20067;-38
2022/01/05 10:47:23;;;;;;;9.18;2.38;;;;;;;;;;5072323;28;20060;-38
2022/01/05 10:49:48;;;;;;;10.48;3.05;;;;;;;;;;5072289;28;20437;-38
2022/01/05 10:52:26;;;;;;;6.72;2.63;;;;;;;;;;5072173;28;20099;-38
2022/01/05 10:54:52;;;;;;;6.55;2.40;;;;;;;;;;5071879;28;20090;-38
2022/01/05 10:57:18;;;;;;;4.68;2.65;;;;;;;;;;5071886;28;20029;-38
2022/01/05 10:59:44;;;;;;;6.80;2.88;;;;;;;;;;5072087;28;20040;-38
2022/01/05 11:02:25;;;;;;;2.45;1.80;;;;;;;;;;5072088;28;20025;-38
2022/01/05 11:04:52;;;;;;;7.38;2.65;;;;;;;;;;5071580;28;20047;-38
2022/01/05 11:07:24;;;;;;;4.93;2.45;;;;;;;;;;5071625;28;20025;-38
2022/01/05 11:09:50;;;;;;;;;;;;;;;;;;5072063;28;20429;-38
2022/01/05 11:12:18;;;;;;;2.78;1.73;;;;;;;;;;5070401;28;19967;-38
2022/01/05 11:14:44;;;;;;;1.45;1.17;;;;;;;;;;5071465;28;20108;-38
2022/01/05 11:17:15;;;;;;;9.10;3.22;;;;;;;;;;5071638;28;20107;-38
2022/01/05 11:19:40;;;;;;;9.95;3.08;;;;;;;;;;5071453;28;20028;-38
2022/01/05 11:22:08;;;;;;;7.50;3.03;;;;;;;;;;5071665;28;20527;-38
2022/01/05 11:24:38;;;;;;;3.80;2.75;;;;;;;;;;5071378;28;20032;-38
2022/01/05 11:27:04;;;;;;;5.05;2.88;;;;;;;;;;5071692;28;20062;-38
2022/01/05 11:29:30;;;;;;;6.53;2.90;;;;;;;;;;5071324;28;20613;-38
2022/01/05 11:31:57;;;;;;;9.82;3.15;;;;;;;;;;5071697;28;20029;-38
2022/01/05 11:34:26;;;;;;;8.07;3.53;;;;;;;;;;5071347;28;20448;-38
2022/01/05 11:36:51;;;;;;;5.10;2.38;;;;;;;;;;5071258;28;20021;-38
2022/01/05 11:39:17;;;;;;;2.70;1.92;;;;;;;;;;5071333;28;20051;-38
2022/01/05 11:41:47;;;;;;;2.90;1.40;;;;;;;;;;5070936;28;20036;-39
2022/01/05 11:44:14;;;;;;;5.32;1.63;;;;;;;;;;5071476;28;20040;-38
2022/01/05 11:46:42;;;;;;;4.18;2.42;;;;;;;;;;5071350;28;20017;-38
2022/01/05 11:49:11;;;;;;;2.33;2.10;;;;;;;;;;5070877;28;20032;-38
2022/01/05 11:51:43;;;;;;;3.97;2.45;;;;;;;;;;5071179;28;20024;-38
2022/01/05 11:54:22;;;;;;;7.43;2.83;;;;;;;;;;5071150;28;20035;-38
2022/01/05 11:56:55;;;;;;;3.40;2.13;;;;;;;;;;5071119;28;20114;-38
2022/01/05 11:59:25;;;;;;;2.85;2.17;;;;;;;;;;5071152;28;20037;-38
2022/01/05 12:02:07;;;;;;;3.80;2.17;;;;;;;;;;5071070;28;20471;-38
2022/01/05 12:05:02;;;;;;;2.70;2.22;;;;;;;;;;5070992;28;20083;-38
2022/01/05 12:07:37;;;;;;;3.88;2.35;;;;;;;;;;5071345;28;20050;-38
2022/01/05 12:10:11;;;;;;;3.42;2.05;;;;;;;;;;5086820;28;20064;-38
2022/01/05 12:12:37;;;;;;;5.32;2.50;;;;;;;;;;5071309;28;20029;-38
2022/01/05 12:15:04;;;;;;;4.68;2.08;;;;;;;;;;5071298;28;20435;-38
2022/01/05 12:17:30;;;;;;;5.03;2.13;;;;;;;;;;5071009;28;20112;-38
2022/01/05 12:19:55;;;;;;;5.28;2.25;;;;;;;;;;5069498;28;20107;-38
2022/01/05 12:22:24;;;;;;;3.83;2.38;;;;;;;;;;5071252;28;20032;-38
2022/01/05 12:24:52;;;;;;;4.65;1.95;;;;;;;;;;5070954;28;20101;-38
2022/01/05 12:27:21;;;;;;;8.43;1.52;;;;;;;;;;5071379;28;20032;-38
2022/01/05 12:29:48;;;;;;;1.58;0.90;;;;;;;;;;5086221;28;20088;-38
2022/01/05 12:32:34;;;;;;;4.20;2.10;;;;;;;;;;5070854;28;20032;-38
2022/01/05 12:35:01;;;;;;;2.40;1.15;;;;;;;;;;5070741;28;20032;-38
2022/01/05 12:37:45;;;;;;;2.42;1.90;;;;;;;;;;5069542;28;20036;-38
2022/01/05 12:40:20;;;;;;;2.90;2.03;;;;;;;;;;5070490;28;20072;-38
2022/01/05 12:42:46;;;;;;;8.57;2.47;;;;;;;;;;5070857;28;20071;-38
2022/01/05 12:45:30;;;;;;;4.10;1.58;;;;;;;;;;5070706;28;20028;-38
2022/01/05 12:47:56;;;;;;;3.28;1.50;;;;;;;;;;5070529;28;20033;-38
2022/01/05 12:50:34;;;;;;;1.90;1.35;;;;;;;;;;5070562;28;20532;-38
2022/01/05 12:52:59;;;;;;;6.80;1.92;;;;;;;;;;5070716;28;20028;-38
2022/01/05 12:55:25;;;;;;;3.38;1.98;;;;;;;;;;5074204;28;20032;-42
2022/01/05 12:57:54;;;;;;;4.75;3.22;;;;;;;;;;5074060;28;20035;-38
2022/01/05 13:00:20;;;;;;;3.80;2.60;;;;;;;;;;5074108;28;20028;-38
2022/01/05 13:02:47;;;;;;;2.30;1.65;;;;;;;;;;5074115;28;20084;-38
2022/01/05 13:05:13;;;;;;;3.22;2.25;;;;;;;;;;5073981;28;20075;-38
2022/01/05 13:07:44;;;;;;;1.13;1.13;;;;;;;;;;5074034;28;20032;-38
2022/01/05 13:10:13;;;;;;;2.58;1.77;;;;;;;;;;5073731;28;20142;-38
2022/01/05 13:12:40;;;;;;;6.07;2.75;;;;;;;;;;5073984;28;20036;-38
2022/01/05 13:15:09;;;;;;;3.92;1.73;;;;;;;;;;5074060;28;20032;-38
2022/01/05 13:17:37;;;;;;;5.82;2.08;;;;;;;;;;5074078;28;20075;-38
2022/01/05 13:20:03;;;;;;;9.52;2.42;;;;;;;;;;5073729;28;20048;-38
2022/01/05 13:22:32;;;;;;;4.03;2.08;;;;;;;;;;5073679;28;20031;-38
2022/01/05 13:25:07;;;;;;;2.55;1.92;;;;;;;;;;5073863;28;20071;-38
2022/01/05 13:27:48;;;;;;;4.55;2.30;;;;;;;;;;5072338;28;20383;-38
2022/01/05 13:30:18;;;;;;;3.20;2.05;;;;;;;;;;5073803;28;20077;-38
2022/01/05 13:32:45;;;;;;;3.05;1.83;;;;;;;;;;5073607;28;20031;-38
2022/01/05 13:35:15;;;;;;;3.05;2.00;;;;;;;;;;5073503;28;20021;-38
2022/01/05 13:37:40;;;;;;;3.17;2.28;;;;;;;;;;5073411;28;20032;-38
2022/01/05 13:40:10;;;;;;;2.97;2.28;;;;;;;;;;5073137;28;20098;-38
2022/01/05 13:42:37;;;;;;;3.92;1.95;;;;;;;;;;5073448;28;20028;-38
2022/01/05 13:45:05;;;;;;;6.32;2.33;;;;;;;;;;5073019;28;20094;-39
2022/01/05 13:47:31;;;;;;;5.07;2.67;;;;;;;;;;5073308;28;20441;-42
2022/01/05 13:50:17;;;;;;;6.95;2.22;;;;;;;;;;5073172;28;20020;-38
2022/01/05 13:52:44;;;;;;;3.70;2.08;;;;;;;;;;5088792;28;20035;-39
2022/01/05 13:55:20;;;;;;;6.47;3.35;;;;;;;;;;5073316;28;20017;-38
2022/01/05 13:57:49;;;;;;;2.50;1.52;;;;;;;;;;5073327;28;20090;-38
2022/01/05 14:00:18;;;;;;;5.95;2.20;;;;;;;;;;5072966;28;20037;-38
2022/01/05 14:02:44;;;;;;;3.88;2.22;;;;;;;;;;5073058;28;20467;-38
2022/01/05 14:05:12;;;;;;;3.33;1.77;;;;;;;;;;5072560;28;20041;-38
2022/01/05 14:07:40;;;;;;;5.55;2.28;;;;;;;;;;5073177;28;20017;-38
2022/01/05 14:10:11;;;;;;;3.88;1.92;;;;;;;;;;5072810;28;20032;-41
2022/01/05 14:12:39;;;;;;;2.25;1.50;;;;;;;;;;5072732;28;20048;-38
2022/01/05 14:15:09;;;;;;;3.70;2.38;;;;;;;;;;5072750;28;20020;-39
2022/01/05 14:17:38;;;;;;;3.28;2.20;;;;;;;;;;5072716;28;20027;-39
2022/01/05 14:20:13;;;;;;;8.70;2.33;;;;;;;;;;5072453;28;20027;-39
2022/01/05 14:22:40;;;;;;;4.10;2.00;;;;;;;;;;5072552;28;20059;-38
2022/01/05 14:25:06;;;;;;;5.25;2.75;;;;;;;;;;5072394;28;20037;-38
2022/01/05 14:27:41;;;;;;;7.85;2.28;;;;;;;;;;5072710;28;20024;-38
2022/01/05 14:30:09;;;;;;;3.13;2.30;;;;;;;;;;5072446;28;20107;-38
2022/01/05 14:32:36;;;;;;;3.47;1.85;;;;;;;;;;5072355;28;20028;-39
2022/01/05 14:35:11;;;;;;;5.32;2.40;;;;;;;;;;5072216;28;20032;-38
2022/01/05 14:37:52;;;;;;;4.53;1.70;;;;;;;;;;5071065;28;20033;-38
2022/01/05 14:40:28;;;;;;;4.65;2.90;;;;;;;;;;5072048;28;20050;-38
2022/01/05 14:42:54;;;;;;;8.15;2.13;;;;;;;;;;5072157;28;20060;-38